To NAV CANADA Home Page Login to a new session Search on AWWS site Feedback and Comments Disclaimer Vers la page française équivalente Tips FAQ What's new on the site To the Forecasts and Observations / NOTAM section To "File a Flight Plan" website Publications and other links Update of the User's profile FIC Telephone Numbers My Weather Data Folder Route Weather Data Regional Weather Data Local Weather Data To the Forecasts and Observations / NOTAM section
Request Generated 06/26/2017 at 22:30:42 UTC . Weather information available at that time is displayed.

METAR/TAF

LA GRANDE-4/QC    (show WxCam)

METAR CYAH 262200Z AUTO 26017G28KT 9SM BKN075 12/01 A2973 RMK SLP080=
METAR CYAH 262100Z AUTO 27016G28KT 9SM SCT055 SCT068 BKN080 12/01
A2973 RMK SLP081 DENSITY ALT 1100FT=
METAR CYAH 262000Z AUTO 28021G34KT 9SM SCT055 OVC073 12/01 A2974 RMK
SLP084 DENSITY ALT 1100FT=

*** REMARK        : Forecast period has ended; this was the last TAF issued
*** REMARQUE : La période de prévision est échue; ceci était le dernier TAF qui a été émis
TAF CYAH 261741Z 2618/2621 27018G28KT P6SM BKN040 TEMPO 2618/2620
P6SM -SHRA
RMK FCST BASED ON AUTO OBS. NXT FCST WILL BE ISSUED AT 271045Z=
Your time UTC time
Weather data provided by Environment Canada and NAV CANADA